sensor_id;sensor_type;location;lat;lon;timestamp;P1;durP1;ratioP1;P2;durP2;ratioP2
18905;SDS011;9585;51.018;4.282;2022-09-20T00:00:40;2.53;;;1.33;;
18905;SDS011;9585;51.018;4.282;2022-09-20T00:03:09;3.00;;;1.15;;
18905;SDS011;9585;51.018;4.282;2022-09-20T00:05:37;1.20;;;1.00;;
18905;SDS011;9585;51.018;4.282;2022-09-20T00:08:06;4.60;;;1.17;;
18905;SDS011;9585;51.018;4.282;2022-09-20T00:10:37;1.00;;;0.80;;
18905;SDS011;9585;51.018;4.282;2022-09-20T00:13:06;3.70;;;0.98;;
18905;SDS011;9585;51.018;4.282;2022-09-20T00:15:39;1.40;;;0.90;;
18905;SDS011;9585;51.018;4.282;2022-09-20T00:18:07;1.55;;;1.13;;
18905;SDS011;9585;51.018;4.282;2022-09-20T00:20:35;2.40;;;1.00;;
18905;SDS011;9585;51.018;4.282;2022-09-20T00:23:02;2.00;;;1.30;;
18905;SDS011;9585;51.018;4.282;2022-09-20T00:25:30;1.77;;;1.00;;
18905;SDS011;9585;51.018;4.282;2022-09-20T00:27:57;1.20;;;1.10;;
18905;SDS011;9585;51.018;4.282;2022-09-20T00:30:26;2.83;;;1.20;;
18905;SDS011;9585;51.018;4.282;2022-09-20T00:32:55;2.58;;;1.10;;
18905;SDS011;9585;51.018;4.282;2022-09-20T00:35:22;1.55;;;1.10;;
18905;SDS011;9585;51.018;4.282;2022-09-20T00:37:49;2.15;;;1.10;;
18905;SDS011;9585;51.018;4.282;2022-09-20T00:40:17;1.90;;;1.20;;
18905;SDS011;9585;51.018;4.282;2022-09-20T00:42:46;1.48;;;1.10;;
18905;SDS011;9585;51.018;4.282;2022-09-20T00:45:15;2.47;;;1.20;;
18905;SDS011;9585;51.018;4.282;2022-09-20T00:47:48;2.28;;;1.30;;
18905;SDS011;9585;51.018;4.282;2022-09-20T00:50:23;1.60;;;1.23;;
18905;SDS011;9585;51.018;4.282;2022-09-20T00:53:00;3.03;;;1.20;;
18905;SDS011;9585;51.018;4.282;2022-09-20T00:55:32;3.03;;;1.02;;
18905;SDS011;9585;51.018;4.282;2022-09-20T00:58:02;2.00;;;1.20;;
18905;SDS011;9585;51.018;4.282;2022-09-20T01:00:31;2.47;;;1.23;;
18905;SDS011;9585;51.018;4.282;2022-09-20T01:03:01;1.98;;;1.30;;
18905;SDS011;9585;51.018;4.282;2022-09-20T01:05:31;1.52;;;1.30;;
18905;SDS011;9585;51.018;4.282;2022-09-20T01:08:00;1.30;;;1.20;;
18905;SDS011;9585;51.018;4.282;2022-09-20T01:10:28;1.73;;;1.23;;
18905;SDS011;9585;51.018;4.282;2022-09-20T01:12:57;1.30;;;1.20;;
18905;SDS011;9585;51.018;4.282;2022-09-20T01:15:24;2.10;;;1.58;;
18905;SDS011;9585;51.018;4.282;2022-09-20T01:17:53;3.53;;;1.70;;
18905;SDS011;9585;51.018;4.282;2022-09-20T01:20:25;1.75;;;1.25;;
18905;SDS011;9585;51.018;4.282;2022-09-20T01:23:02;1.67;;;1.40;;
18905;SDS011;9585;51.018;4.282;2022-09-20T01:26:00;1.73;;;1.33;;
18905;SDS011;9585;51.018;4.282;2022-09-20T01:29:00;2.13;;;1.40;;
18905;SDS011;9585;51.018;4.282;2022-09-20T01:31:39;3.63;;;2.22;;
18905;SDS011;9585;51.018;4.282;2022-09-20T01:34:12;2.05;;;1.85;;
18905;SDS011;9585;51.018;4.282;2022-09-20T01:36:43;2.72;;;1.60;;
18905;SDS011;9585;51.018;4.282;2022-09-20T01:39:23;2.15;;;1.52;;
18905;SDS011;9585;51.018;4.282;2022-09-20T01:42:01;4.22;;;1.92;;
18905;SDS011;9585;51.018;4.282;2022-09-20T01:44:33;2.13;;;1.60;;
18905;SDS011;9585;51.018;4.282;2022-09-20T01:47:06;2.25;;;1.63;;
18905;SDS011;9585;51.018;4.282;2022-09-20T01:49:40;1.60;;;1.50;;
18905;SDS011;9585;51.018;4.282;2022-09-20T01:52:37;1.83;;;1.45;;
18905;SDS011;9585;51.018;4.282;2022-09-20T01:55:29;1.55;;;1.40;;
18905;SDS011;9585;51.018;4.282;2022-09-20T02:04:29;5.68;;;2.70;;
18905;SDS011;9585;51.018;4.282;2022-09-20T02:07:26;5.07;;;2.70;;
18905;SDS011;9585;51.018;4.282;2022-09-20T02:10:40;8.40;;;3.38;;
18905;SDS011;9585;51.018;4.282;2022-09-20T02:13:26;5.07;;;3.45;;
18905;SDS011;9585;51.018;4.282;2022-09-20T02:16:02;6.68;;;3.63;;
18905;SDS011;9585;51.018;4.282;2022-09-20T02:18:47;7.25;;;3.58;;
18905;SDS011;9585;51.018;4.282;2022-09-20T02:21:34;7.00;;;3.85;;
18905;SDS011;9585;51.018;4.282;2022-09-20T02:24:15;6.45;;;4.05;;
18905;SDS011;9585;51.018;4.282;2022-09-20T02:26:56;6.03;;;4.05;;
18905;SDS011;9585;51.018;4.282;2022-09-20T02:29:37;7.70;;;4.20;;
18905;SDS011;9585;51.018;4.282;2022-09-20T02:32:25;7.13;;;3.83;;
18905;SDS011;9585;51.018;4.282;2022-09-20T02:35:07;5.00;;;3.88;;
18905;SDS011;9585;51.018;4.282;2022-09-20T02:38:06;6.75;;;4.15;;
18905;SDS011;9585;51.018;4.282;2022-09-20T02:40:45;7.15;;;3.88;;
18905;SDS011;9585;51.018;4.282;2022-09-20T02:43:26;5.53;;;4.05;;
18905;SDS011;9585;51.018;4.282;2022-09-20T02:46:08;7.50;;;4.47;;
18905;SDS011;9585;51.018;4.282;2022-09-20T02:48:43;6.00;;;4.43;;
18905;SDS011;9585;51.018;4.282;2022-09-20T02:51:19;5.55;;;3.65;;
18905;SDS011;9585;51.018;4.282;2022-09-20T02:53:54;7.78;;;4.00;;
18905;SDS011;9585;51.018;4.282;2022-09-20T02:56:34;6.68;;;4.20;;
18905;SDS011;9585;51.018;4.282;2022-09-20T02:59:09;5.93;;;3.90;;
18905;SDS011;9585;51.018;4.282;2022-09-20T03:01:50;5.13;;;3.35;;
18905;SDS011;9585;51.018;4.282;2022-09-20T03:04:28;5.28;;;3.97;;
18905;SDS011;9585;51.018;4.282;2022-09-20T03:07:08;6.63;;;4.15;;
18905;SDS011;9585;51.018;4.282;2022-09-20T03:09:45;5.97;;;3.85;;
18905;SDS011;9585;51.018;4.282;2022-09-20T03:12:18;6.32;;;4.03;;
18905;SDS011;9585;51.018;4.282;2022-09-20T03:14:59;6.90;;;3.97;;
18905;SDS011;9585;51.018;4.282;2022-09-20T03:17:50;5.57;;;4.15;;
18905;SDS011;9585;51.018;4.282;2022-09-20T03:20:29;6.07;;;3.80;;
18905;SDS011;9585;51.018;4.282;2022-09-20T03:23:06;6.50;;;3.60;;
18905;SDS011;9585;51.018;4.282;2022-09-20T03:25:46;5.85;;;4.20;;
18905;SDS011;9585;51.018;4.282;2022-09-20T03:28:29;5.60;;;4.20;;
18905;SDS011;9585;51.018;4.282;2022-09-20T03:31:07;7.03;;;3.80;;
18905;SDS011;9585;51.018;4.282;2022-09-20T03:33:45;5.30;;;3.63;;
18905;SDS011;9585;51.018;4.282;2022-09-20T03:36:24;6.88;;;3.90;;
18905;SDS011;9585;51.018;4.282;2022-09-20T03:39:12;4.53;;;3.28;;
18905;SDS011;9585;51.018;4.282;2022-09-20T03:42:00;6.40;;;3.78;;
18905;SDS011;9585;51.018;4.282;2022-09-20T03:44:39;7.40;;;4.30;;
18905;SDS011;9585;51.018;4.282;2022-09-20T03:47:20;4.93;;;3.63;;
18905;SDS011;9585;51.018;4.282;2022-09-20T03:50:06;5.47;;;3.80;;
18905;SDS011;9585;51.018;4.282;2022-09-20T03:53:03;4.80;;;3.40;;
18905;SDS011;9585;51.018;4.282;2022-09-20T03:55:54;4.30;;;3.33;;
18905;SDS011;9585;51.018;4.282;2022-09-20T03:58:47;4.13;;;3.50;;
18905;SDS011;9585;51.018;4.282;2022-09-20T04:01:37;4.13;;;2.97;;
18905;SDS011;9585;51.018;4.282;2022-09-20T04:04:18;5.28;;;3.90;;
18905;SDS011;9585;51.018;4.282;2022-09-20T04:06:59;4.35;;;3.47;;
18905;SDS011;9585;51.018;4.282;2022-09-20T04:09:42;4.90;;;3.92;;
18905;SDS011;9585;51.018;4.282;2022-09-20T04:12:26;4.18;;;3.20;;
18905;SDS011;9585;51.018;4.282;2022-09-20T04:15:04;7.72;;;3.45;;
18905;SDS011;9585;51.018;4.282;2022-09-20T04:17:47;5.18;;;3.60;;
18905;SDS011;9585;51.018;4.282;2022-09-20T04:20:21;7.70;;;3.65;;
18905;SDS011;9585;51.018;4.282;2022-09-20T04:22:57;4.30;;;3.50;;
18905;SDS011;9585;51.018;4.282;2022-09-20T04:25:33;4.03;;;3.03;;
18905;SDS011;9585;51.018;4.282;2022-09-20T04:28:10;4.70;;;3.25;;
18905;SDS011;9585;51.018;4.282;2022-09-20T04:30:41;6.75;;;3.58;;
18905;SDS011;9585;51.018;4.282;2022-09-20T04:33:12;6.38;;;3.90;;
18905;SDS011;9585;51.018;4.282;2022-09-20T04:35:46;5.50;;;3.78;;
18905;SDS011;9585;51.018;4.282;2022-09-20T04:38:39;6.47;;;3.88;;
18905;SDS011;9585;51.018;4.282;2022-09-20T04:41:17;4.35;;;3.33;;
18905;SDS011;9585;51.018;4.282;2022-09-20T04:47:10;4.15;;;3.33;;
18905;SDS011;9585;51.018;4.282;2022-09-20T04:50:11;4.47;;;3.28;;
18905;SDS011;9585;51.018;4.282;2022-09-20T04:56:02;5.97;;;3.10;;
18905;SDS011;9585;51.018;4.282;2022-09-20T04:58:41;5.55;;;3.35;;
18905;SDS011;9585;51.018;4.282;2022-09-20T05:04:49;3.28;;;2.95;;
18905;SDS011;9585;51.018;4.282;2022-09-20T05:07:51;4.18;;;3.13;;
18905;SDS011;9585;51.018;4.282;2022-09-20T05:10:49;3.85;;;2.92;;
18905;SDS011;9585;51.018;4.282;2022-09-20T05:13:54;4.28;;;2.92;;
18905;SDS011;9585;51.018;4.282;2022-09-20T05:16:40;4.25;;;3.08;;
18905;SDS011;9585;51.018;4.282;2022-09-20T05:19:26;4.43;;;3.42;;
18905;SDS011;9585;51.018;4.282;2022-09-20T05:22:11;5.03;;;3.38;;
18905;SDS011;9585;51.018;4.282;2022-09-20T05:24:55;4.13;;;2.70;;
18905;SDS011;9585;51.018;4.282;2022-09-20T05:27:40;3.92;;;2.55;;
18905;SDS011;9585;51.018;4.282;2022-09-20T05:30:17;3.55;;;3.05;;
18905;SDS011;9585;51.018;4.282;2022-09-20T05:32:51;3.88;;;2.78;;
18905;SDS011;9585;51.018;4.282;2022-09-20T05:35:27;4.05;;;2.90;;
18905;SDS011;9585;51.018;4.282;2022-09-20T05:38:03;5.55;;;3.30;;
18905;SDS011;9585;51.018;4.282;2022-09-20T05:40:40;5.32;;;3.42;;
18905;SDS011;9585;51.018;4.282;2022-09-20T05:43:26;3.50;;;3.17;;
18905;SDS011;9585;51.018;4.282;2022-09-20T05:46:01;4.53;;;3.50;;
18905;SDS011;9585;51.018;4.282;2022-09-20T05:48:37;4.65;;;3.08;;
18905;SDS011;9585;51.018;4.282;2022-09-20T05:51:14;4.60;;;3.22;;
18905;SDS011;9585;51.018;4.282;2022-09-20T05:54:04;3.97;;;3.30;;
18905;SDS011;9585;51.018;4.282;2022-09-20T05:57:10;4.93;;;3.20;;
18905;SDS011;9585;51.018;4.282;2022-09-20T05:59:52;4.63;;;3.10;;
18905;SDS011;9585;51.018;4.282;2022-09-20T06:02:31;6.45;;;3.88;;
18905;SDS011;9585;51.018;4.282;2022-09-20T06:05:09;5.72;;;4.40;;
18905;SDS011;9585;51.018;4.282;2022-09-20T06:07:53;6.28;;;3.65;;
18905;SDS011;9585;51.018;4.282;2022-09-20T06:10:54;5.55;;;3.10;;
18905;SDS011;9585;51.018;4.282;2022-09-20T06:13:53;4.28;;;2.58;;
18905;SDS011;9585;51.018;4.282;2022-09-20T06:16:33;4.57;;;2.40;;
18905;SDS011;9585;51.018;4.282;2022-09-20T06:19:09;2.92;;;2.30;;
18905;SDS011;9585;51.018;4.282;2022-09-20T06:21:46;4.65;;;1.90;;
18905;SDS011;9585;51.018;4.282;2022-09-20T06:24:25;3.30;;;2.28;;
18905;SDS011;9585;51.018;4.282;2022-09-20T06:27:00;5.15;;;2.15;;
18905;SDS011;9585;51.018;4.282;2022-09-20T06:29:33;3.30;;;2.00;;
18905;SDS011;9585;51.018;4.282;2022-09-20T06:32:04;3.85;;;1.75;;
18905;SDS011;9585;51.018;4.282;2022-09-20T06:34:32;2.83;;;2.08;;
18905;SDS011;9585;51.018;4.282;2022-09-20T06:37:03;2.78;;;1.73;;
18905;SDS011;9585;51.018;4.282;2022-09-20T06:40:00;2.97;;;1.88;;
18905;SDS011;9585;51.018;4.282;2022-09-20T06:43:05;3.20;;;1.60;;
18905;SDS011;9585;51.018;4.282;2022-09-20T06:45:32;4.00;;;1.77;;
18905;SDS011;9585;51.018;4.282;2022-09-20T06:48:01;2.10;;;1.90;;
18905;SDS011;9585;51.018;4.282;2022-09-20T06:50:29;4.38;;;2.08;;
18905;SDS011;9585;51.018;4.282;2022-09-20T06:52:57;3.20;;;2.13;;
18905;SDS011;9585;51.018;4.282;2022-09-20T06:55:41;3.65;;;1.80;;
18905;SDS011;9585;51.018;4.282;2022-09-20T06:58:15;4.25;;;2.17;;
18905;SDS011;9585;51.018;4.282;2022-09-20T07:00:43;4.55;;;2.20;;
18905;SDS011;9585;51.018;4.282;2022-09-20T07:03:10;3.97;;;1.83;;
18905;SDS011;9585;51.018;4.282;2022-09-20T07:05:38;4.18;;;2.17;;
18905;SDS011;9585;51.018;4.282;2022-09-20T07:08:05;5.55;;;2.10;;
18905;SDS011;9585;51.018;4.282;2022-09-20T07:10:36;2.55;;;1.90;;
18905;SDS011;9585;51.018;4.282;2022-09-20T07:13:06;5.35;;;2.10;;
18905;SDS011;9585;51.018;4.282;2022-09-20T07:15:39;3.42;;;1.98;;
18905;SDS011;9585;51.018;4.282;2022-09-20T07:18:06;4.90;;;2.47;;
18905;SDS011;9585;51.018;4.282;2022-09-20T07:20:33;2.92;;;2.00;;
18905;SDS011;9585;51.018;4.282;2022-09-20T07:23:01;2.58;;;1.75;;
18905;SDS011;9585;51.018;4.282;2022-09-20T07:25:29;3.88;;;2.00;;
18905;SDS011;9585;51.018;4.282;2022-09-20T07:27:59;4.00;;;2.40;;
18905;SDS011;9585;51.018;4.282;2022-09-20T07:30:30;4.80;;;2.30;;
18905;SDS011;9585;51.018;4.282;2022-09-20T07:33:05;2.88;;;1.88;;
18905;SDS011;9585;51.018;4.282;2022-09-20T07:35:46;3.10;;;2.10;;
18905;SDS011;9585;51.018;4.282;2022-09-20T07:38:18;3.92;;;2.40;;
18905;SDS011;9585;51.018;4.282;2022-09-20T07:40:56;3.00;;;2.33;;
18905;SDS011;9585;51.018;4.282;2022-09-20T07:43:24;4.22;;;2.15;;
18905;SDS011;9585;51.018;4.282;2022-09-20T07:45:53;4.65;;;2.45;;
18905;SDS011;9585;51.018;4.282;2022-09-20T07:48:24;3.80;;;2.42;;
18905;SDS011;9585;51.018;4.282;2022-09-20T07:50:53;3.90;;;2.60;;
18905;SDS011;9585;51.018;4.282;2022-09-20T07:53:21;4.50;;;2.60;;
18905;SDS011;9585;51.018;4.282;2022-09-20T07:55:55;6.10;;;3.05;;
18905;SDS011;9585;51.018;4.282;2022-09-20T07:58:23;4.43;;;2.95;;
18905;SDS011;9585;51.018;4.282;2022-09-20T08:00:51;3.83;;;2.88;;
18905;SDS011;9585;51.018;4.282;2022-09-20T08:03:20;4.38;;;3.00;;
18905;SDS011;9585;51.018;4.282;2022-09-20T08:05:49;3.70;;;2.65;;
18905;SDS011;9585;51.018;4.282;2022-09-20T08:08:16;5.25;;;2.80;;
18905;SDS011;9585;51.018;4.282;2022-09-20T08:10:44;3.40;;;2.72;;
18905;SDS011;9585;51.018;4.282;2022-09-20T08:13:14;4.72;;;3.13;;
18905;SDS011;9585;51.018;4.282;2022-09-20T08:15:41;3.92;;;2.95;;
18905;SDS011;9585;51.018;4.282;2022-09-20T08:18:09;3.70;;;2.92;;
18905;SDS011;9585;51.018;4.282;2022-09-20T08:20:37;6.22;;;3.38;;
18905;SDS011;9585;51.018;4.282;2022-09-20T08:23:06;6.05;;;3.88;;
18905;SDS011;9585;51.018;4.282;2022-09-20T08:25:34;7.15;;;4.00;;
18905;SDS011;9585;51.018;4.282;2022-09-20T08:28:02;5.68;;;4.00;;
18905;SDS011;9585;51.018;4.282;2022-09-20T08:30:29;6.70;;;4.05;;
18905;SDS011;9585;51.018;4.282;2022-09-20T08:32:56;6.95;;;4.03;;
18905;SDS011;9585;51.018;4.282;2022-09-20T08:35:24;6.72;;;4.35;;
18905;SDS011;9585;51.018;4.282;2022-09-20T08:37:53;6.45;;;4.53;;
18905;SDS011;9585;51.018;4.282;2022-09-20T08:40:23;4.60;;;3.83;;
18905;SDS011;9585;51.018;4.282;2022-09-20T08:42:50;6.78;;;3.97;;
18905;SDS011;9585;51.018;4.282;2022-09-20T08:45:20;5.60;;;4.03;;
18905;SDS011;9585;51.018;4.282;2022-09-20T08:47:50;6.25;;;4.18;;
18905;SDS011;9585;51.018;4.282;2022-09-20T08:50:28;7.00;;;4.45;;
18905;SDS011;9585;51.018;4.282;2022-09-20T08:52:59;5.45;;;3.75;;
18905;SDS011;9585;51.018;4.282;2022-09-20T08:55:32;5.32;;;3.20;;
18905;SDS011;9585;51.018;4.282;2022-09-20T08:58:07;7.60;;;3.70;;
18905;SDS011;9585;51.018;4.282;2022-09-20T09:00:38;6.68;;;3.55;;
18905;SDS011;9585;51.018;4.282;2022-09-20T09:03:10;3.80;;;3.10;;
18905;SDS011;9585;51.018;4.282;2022-09-20T09:05:39;4.55;;;3.25;;
18905;SDS011;9585;51.018;4.282;2022-09-20T09:08:16;4.80;;;2.95;;
18905;SDS011;9585;51.018;4.282;2022-09-20T09:10:54;6.35;;;2.97;;
18905;SDS011;9585;51.018;4.282;2022-09-20T09:13:24;7.40;;;2.85;;
18905;SDS011;9585;51.018;4.282;2022-09-20T09:15:58;7.32;;;2.80;;
18905;SDS011;9585;51.018;4.282;2022-09-20T09:18:30;4.07;;;2.63;;
18905;SDS011;9585;51.018;4.282;2022-09-20T09:21:00;5.07;;;2.50;;
18905;SDS011;9585;51.018;4.282;2022-09-20T09:23:30;5.72;;;2.50;;
18905;SDS011;9585;51.018;4.282;2022-09-20T09:26:11;5.35;;;2.53;;
18905;SDS011;9585;51.018;4.282;2022-09-20T09:28:42;4.40;;;2.30;;
18905;SDS011;9585;51.018;4.282;2022-09-20T09:31:19;5.20;;;2.60;;
18905;SDS011;9585;51.018;4.282;2022-09-20T09:33:51;3.58;;;2.15;;
18905;SDS011;9585;51.018;4.282;2022-09-20T09:36:20;3.95;;;2.20;;
18905;SDS011;9585;51.018;4.282;2022-09-20T09:38:50;6.03;;;2.80;;
18905;SDS011;9585;51.018;4.282;2022-09-20T09:41:39;3.78;;;2.53;;
18905;SDS011;9585;51.018;4.282;2022-09-20T09:44:17;3.22;;;2.03;;
18905;SDS011;9585;51.018;4.282;2022-09-20T09:46:49;3.88;;;2.10;;
18905;SDS011;9585;51.018;4.282;2022-09-20T09:49:18;5.72;;;2.58;;
18905;SDS011;9585;51.018;4.282;2022-09-20T09:52:02;3.50;;;2.47;;
18905;SDS011;9585;51.018;4.282;2022-09-20T09:54:37;4.30;;;2.53;;
18905;SDS011;9585;51.018;4.282;2022-09-20T09:57:12;5.00;;;2.40;;
18905;SDS011;9585;51.018;4.282;2022-09-20T09:59:53;4.05;;;2.72;;
18905;SDS011;9585;51.018;4.282;2022-09-20T10:02:33;6.70;;;3.00;;
18905;SDS011;9585;51.018;4.282;2022-09-20T10:05:16;5.38;;;2.92;;
18905;SDS011;9585;51.018;4.282;2022-09-20T10:07:48;6.35;;;3.20;;
18905;SDS011;9585;51.018;4.282;2022-09-20T10:10:26;6.30;;;3.53;;
18905;SDS011;9585;51.018;4.282;2022-09-20T10:13:06;5.65;;;3.70;;
18905;SDS011;9585;51.018;4.282;2022-09-20T10:15:48;6.93;;;3.30;;
18905;SDS011;9585;51.018;4.282;2022-09-20T10:21:39;6.32;;;3.20;;
18905;SDS011;9585;51.018;4.282;2022-09-20T10:24:22;4.75;;;2.30;;
18905;SDS011;9585;51.018;4.282;2022-09-20T10:30:06;5.20;;;2.50;;
18905;SDS011;9585;51.018;4.282;2022-09-20T10:32:43;6.80;;;2.42;;
18905;SDS011;9585;51.018;4.282;2022-09-20T10:35:25;8.05;;;2.47;;
18905;SDS011;9585;51.018;4.282;2022-09-20T10:38:11;4.70;;;2.25;;
18905;SDS011;9585;51.018;4.282;2022-09-20T10:40:42;4.80;;;2.33;;
18905;SDS011;9585;51.018;4.282;2022-09-20T10:43:51;4.57;;;1.90;;
18905;SDS011;9585;51.018;4.282;2022-09-20T10:46:37;5.30;;;2.25;;
18905;SDS011;9585;51.018;4.282;2022-09-20T10:49:19;5.30;;;2.00;;
18905;SDS011;9585;51.018;4.282;2022-09-20T10:52:07;2.97;;;1.40;;
18905;SDS011;9585;51.018;4.282;2022-09-20T10:54:51;4.40;;;1.20;;
18905;SDS011;9585;51.018;4.282;2022-09-20T11:00:48;3.55;;;1.08;;
18905;SDS011;9585;51.018;4.282;2022-09-20T11:03:35;3.58;;;1.00;;
18905;SDS011;9585;51.018;4.282;2022-09-20T11:09:49;3.97;;;1.70;;
18905;SDS011;9585;51.018;4.282;2022-09-20T11:12:25;1.00;;;0.63;;
18905;SDS011;9585;51.018;4.282;2022-09-20T11:14:56;4.05;;;1.10;;
18905;SDS011;9585;51.018;4.282;2022-09-20T11:17:29;3.15;;;0.70;;
18905;SDS011;9585;51.018;4.282;2022-09-20T11:20:06;2.67;;;0.80;;
18905;SDS011;9585;51.018;4.282;2022-09-20T11:22:42;2.72;;;0.63;;
18905;SDS011;9585;51.018;4.282;2022-09-20T11:25:14;2.22;;;0.65;;
18905;SDS011;9585;51.018;4.282;2022-09-20T11:27:45;1.88;;;0.77;;
18905;SDS011;9585;51.018;4.282;2022-09-20T11:30:18;1.00;;;0.50;;
18905;SDS011;9585;51.018;4.282;2022-09-20T11:32:46;4.10;;;0.65;;
18905;SDS011;9585;51.018;4.282;2022-09-20T11:35:28;2.15;;;0.70;;
18905;SDS011;9585;51.018;4.282;2022-09-20T11:38:03;1.42;;;0.65;;
18905;SDS011;9585;51.018;4.282;2022-09-20T11:40:41;2.63;;;0.63;;
18905;SDS011;9585;51.018;4.282;2022-09-20T11:43:13;1.35;;;0.55;;
18905;SDS011;9585;51.018;4.282;2022-09-20T11:45:43;1.70;;;0.57;;
18905;SDS011;9585;51.018;4.282;2022-09-20T11:48:14;1.85;;;0.63;;
18905;SDS011;9585;51.018;4.282;2022-09-20T11:56:48;2.58;;;0.60;;
18905;SDS011;9585;51.018;4.282;2022-09-20T11:59:28;1.77;;;0.60;;
18905;SDS011;9585;51.018;4.282;2022-09-20T12:01:58;2.95;;;0.80;;
18905;SDS011;9585;51.018;4.282;2022-09-20T12:04:44;3.83;;;0.70;;
18905;SDS011;9585;51.018;4.282;2022-09-20T12:07:18;1.88;;;0.60;;
18905;SDS011;9585;51.018;4.282;2022-09-20T12:09:53;3.95;;;0.70;;
18905;SDS011;9585;51.018;4.282;2022-09-20T12:15:21;1.73;;;0.70;;
18905;SDS011;9585;51.018;4.282;2022-09-20T12:18:05;2.45;;;0.70;;
18905;SDS011;9585;51.018;4.282;2022-09-20T12:23:44;2.25;;;0.70;;
18905;SDS011;9585;51.018;4.282;2022-09-20T12:32:28;1.92;;;0.80;;
18905;SDS011;9585;51.018;4.282;2022-09-20T12:38:24;3.13;;;0.70;;
18905;SDS011;9585;51.018;4.282;2022-09-20T12:41:08;2.08;;;0.63;;
18905;SDS011;9585;51.018;4.282;2022-09-20T12:43:50;2.08;;;0.70;;
18905;SDS011;9585;51.018;4.282;2022-09-20T12:46:37;2.53;;;0.68;;
18905;SDS011;9585;51.018;4.282;2022-09-20T12:49:23;2.97;;;0.50;;
18905;SDS011;9585;51.018;4.282;2022-09-20T12:52:23;1.63;;;0.80;;
18905;SDS011;9585;51.018;4.282;2022-09-20T12:55:35;3.80;;;1.00;;
18905;SDS011;9585;51.018;4.282;2022-09-20T12:58:19;4.57;;;0.82;;
18905;SDS011;9585;51.018;4.282;2022-09-20T13:16:15;3.97;;;0.90;;
18905;SDS011;9585;51.018;4.282;2022-09-20T13:18:54;3.05;;;0.88;;
18905;SDS011;9585;51.018;4.282;2022-09-20T13:21:30;4.25;;;0.80;;
18905;SDS011;9585;51.018;4.282;2022-09-20T13:26:54;3.50;;;0.80;;
18905;SDS011;9585;51.018;4.282;2022-09-20T13:29:30;3.05;;;0.70;;
18905;SDS011;9585;51.018;4.282;2022-09-20T13:32:20;3.10;;;0.82;;
18905;SDS011;9585;51.018;4.282;2022-09-20T13:35:06;2.60;;;1.00;;
18905;SDS011;9585;51.018;4.282;2022-09-20T13:37:54;2.80;;;0.80;;
18905;SDS011;9585;51.018;4.282;2022-09-20T13:40:31;2.03;;;0.63;;
18905;SDS011;9585;51.018;4.282;2022-09-20T13:43:15;2.90;;;0.90;;
18905;SDS011;9585;51.018;4.282;2022-09-20T13:46:13;1.52;;;0.73;;
18905;SDS011;9585;51.018;4.282;2022-09-20T13:48:46;1.55;;;0.60;;
18905;SDS011;9585;51.018;4.282;2022-09-20T13:51:34;2.65;;;0.77;;
18905;SDS011;9585;51.018;4.282;2022-09-20T13:54:25;3.10;;;0.90;;
18905;SDS011;9585;51.018;4.282;2022-09-20T13:57:09;2.72;;;1.00;;
18905;SDS011;9585;51.018;4.282;2022-09-20T13:59:47;3.40;;;1.10;;
18905;SDS011;9585;51.018;4.282;2022-09-20T14:02:29;5.65;;;1.58;;
18905;SDS011;9585;51.018;4.282;2022-09-20T14:05:00;4.45;;;1.45;;
18905;SDS011;9585;51.018;4.282;2022-09-20T14:07:31;3.38;;;1.40;;
18905;SDS011;9585;51.018;4.282;2022-09-20T14:10:01;3.42;;;1.58;;
18905;SDS011;9585;51.018;4.282;2022-09-20T14:12:54;3.80;;;1.60;;
18905;SDS011;9585;51.018;4.282;2022-09-20T14:15:31;5.45;;;1.58;;
18905;SDS011;9585;51.018;4.282;2022-09-20T14:18:18;3.70;;;1.40;;
18905;SDS011;9585;51.018;4.282;2022-09-20T14:20:48;4.22;;;1.13;;
18905;SDS011;9585;51.018;4.282;2022-09-20T14:23:25;2.92;;;1.08;;
18905;SDS011;9585;51.018;4.282;2022-09-20T14:26:07;2.45;;;0.95;;
18905;SDS011;9585;51.018;4.282;2022-09-20T14:28:56;1.50;;;0.85;;
18905;SDS011;9585;51.018;4.282;2022-09-20T14:32:08;1.42;;;0.88;;
18905;SDS011;9585;51.018;4.282;2022-09-20T14:34:51;3.13;;;0.93;;
18905;SDS011;9585;51.018;4.282;2022-09-20T14:37:27;7.47;;;1.35;;
18905;SDS011;9585;51.018;4.282;2022-09-20T14:39:57;2.47;;;0.98;;
18905;SDS011;9585;51.018;4.282;2022-09-20T14:42:33;2.58;;;0.90;;
18905;SDS011;9585;51.018;4.282;2022-09-20T14:45:15;4.07;;;1.20;;
18905;SDS011;9585;51.018;4.282;2022-09-20T14:47:55;2.42;;;1.00;;
18905;SDS011;9585;51.018;4.282;2022-09-20T14:50:35;3.47;;;0.98;;
18905;SDS011;9585;51.018;4.282;2022-09-20T14:53:19;3.30;;;1.00;;
18905;SDS011;9585;51.018;4.282;2022-09-20T14:56:09;2.92;;;1.00;;
18905;SDS011;9585;51.018;4.282;2022-09-20T14:59:05;2.00;;;1.08;;
18905;SDS011;9585;51.018;4.282;2022-09-20T15:01:58;1.80;;;0.90;;
18905;SDS011;9585;51.018;4.282;2022-09-20T15:04:38;2.47;;;0.93;;
18905;SDS011;9585;51.018;4.282;2022-09-20T15:07:20;3.08;;;1.10;;
18905;SDS011;9585;51.018;4.282;2022-09-20T15:09:47;5.00;;;1.20;;
18905;SDS011;9585;51.018;4.282;2022-09-20T15:12:15;1.75;;;0.95;;
18905;SDS011;9585;51.018;4.282;2022-09-20T15:14:44;1.92;;;1.02;;
18905;SDS011;9585;51.018;4.282;2022-09-20T15:17:24;4.35;;;1.60;;
18905;SDS011;9585;51.018;4.282;2022-09-20T15:19:54;2.67;;;1.13;;
18905;SDS011;9585;51.018;4.282;2022-09-20T15:22:24;2.63;;;1.40;;
18905;SDS011;9585;51.018;4.282;2022-09-20T15:24:58;2.95;;;1.60;;
18905;SDS011;9585;51.018;4.282;2022-09-20T15:27:35;3.30;;;1.40;;
18905;SDS011;9585;51.018;4.282;2022-09-20T15:30:14;2.17;;;1.50;;
18905;SDS011;9585;51.018;4.282;2022-09-20T15:32:51;3.72;;;1.50;;
18905;SDS011;9585;51.018;4.282;2022-09-20T15:35:18;4.53;;;1.40;;
18905;SDS011;9585;51.018;4.282;2022-09-20T15:37:46;3.85;;;1.98;;
18905;SDS011;9585;51.018;4.282;2022-09-20T15:40:15;3.88;;;1.90;;
18905;SDS011;9585;51.018;4.282;2022-09-20T15:42:43;2.78;;;1.40;;
18905;SDS011;9585;51.018;4.282;2022-09-20T15:45:19;2.47;;;1.10;;
18905;SDS011;9585;51.018;4.282;2022-09-20T15:47:47;4.53;;;2.45;;
18905;SDS011;9585;51.018;4.282;2022-09-20T15:50:23;3.05;;;1.52;;
18905;SDS011;9585;51.018;4.282;2022-09-20T15:52:55;4.05;;;0.90;;
18905;SDS011;9585;51.018;4.282;2022-09-20T15:55:26;1.75;;;0.93;;
18905;SDS011;9585;51.018;4.282;2022-09-20T15:58:07;2.10;;;1.30;;
18905;SDS011;9585;51.018;4.282;2022-09-20T16:00:48;3.55;;;1.35;;
18905;SDS011;9585;51.018;4.282;2022-09-20T16:03:19;3.55;;;1.58;;
18905;SDS011;9585;51.018;4.282;2022-09-20T16:05:57;2.63;;;1.30;;
18905;SDS011;9585;51.018;4.282;2022-09-20T16:08:25;2.30;;;1.20;;
18905;SDS011;9585;51.018;4.282;2022-09-20T16:11:09;2.38;;;1.48;;
18905;SDS011;9585;51.018;4.282;2022-09-20T16:13:39;2.45;;;1.77;;
18905;SDS011;9585;51.018;4.282;2022-09-20T16:16:08;3.83;;;1.90;;
18905;SDS011;9585;51.018;4.282;2022-09-20T16:18:37;3.40;;;1.30;;
18905;SDS011;9585;51.018;4.282;2022-09-20T16:21:24;2.92;;;1.40;;
18905;SDS011;9585;51.018;4.282;2022-09-20T16:23:52;2.22;;;1.52;;
18905;SDS011;9585;51.018;4.282;2022-09-20T16:26:23;1.30;;;1.20;;
18905;SDS011;9585;51.018;4.282;2022-09-20T16:28:52;1.42;;;1.15;;
18905;SDS011;9585;51.018;4.282;2022-09-20T16:31:30;2.28;;;1.30;;
18905;SDS011;9585;51.018;4.282;2022-09-20T16:33:59;1.33;;;1.23;;
18905;SDS011;9585;51.018;4.282;2022-09-20T16:36:29;2.22;;;1.60;;
18905;SDS011;9585;51.018;4.282;2022-09-20T16:38:57;2.80;;;1.35;;
18905;SDS011;9585;51.018;4.282;2022-09-20T16:41:25;2.25;;;1.20;;
18905;SDS011;9585;51.018;4.282;2022-09-20T16:43:54;1.83;;;1.20;;
18905;SDS011;9585;51.018;4.282;2022-09-20T16:46:22;1.48;;;0.98;;
18905;SDS011;9585;51.018;4.282;2022-09-20T16:48:51;2.17;;;1.20;;
18905;SDS011;9585;51.018;4.282;2022-09-20T16:51:19;1.85;;;1.20;;
18905;SDS011;9585;51.018;4.282;2022-09-20T16:53:50;1.02;;;0.80;;
18905;SDS011;9585;51.018;4.282;2022-09-20T16:56:20;1.38;;;0.73;;
18905;SDS011;9585;51.018;4.282;2022-09-20T16:58:48;0.82;;;0.60;;
18905;SDS011;9585;51.018;4.282;2022-09-20T17:01:16;0.95;;;0.60;;
18905;SDS011;9585;51.018;4.282;2022-09-20T17:03:44;1.58;;;0.70;;
18905;SDS011;9585;51.018;4.282;2022-09-20T17:06:12;1.45;;;0.70;;
18905;SDS011;9585;51.018;4.282;2022-09-20T17:08:41;1.10;;;0.60;;